ウィニペグ の空港の天気 - METARとTAF

ウィニペグ国際空港 ( CYWG / YWG ) - カナダ マニトバ州ウィニペグ
飛行場実況気象(Metar)
観測時間04/04 03:00 CDT (04/04 08:00 UTC)
風向・風速南西 4m/s
視程10km以上
天気現象
なし
気温-15℃
湿度78%
気圧1025.7hPa
METARCYWG 040800Z 22007KT 15SM SKC M15/M18 A3022 RMK SLP257
過去の天気等 Google飛行場航空写真 Wunderground天気予報

過去48時間のMETAR

飛行場予報(TAF)
発表時間: 4/04 00:38 CDT (4/04 05:38 UTC)
予報対象時間: 4日1時 CDT ~ 5日1時 CDT
風向・風速西南西 3m/s
視程10km以上
なし
4日9時 CDT から
風向・風速南 3m/s
視程10km以上
少しの雲 雲底高度 1830m
4日11時 CDT ~ 4日13時 CDT に徐々に
風向・風速南南東 5m/s
4日17時 CDT から
風向・風速南南東 4m/s
視程10km以上
全天の4割程度の雲 雲底高度 2440m
全天の8割程度の雲 雲底高度 6100m
4日19時 CDT ~ 4日21時 CDT に徐々に
風向・風速東 4m/s
TAF CYWG 040538Z 0406/0506 24006KT P6SM SKC
FM041400 18006KT P6SM FEW060
BECMG 0416/0418 16010KT
FM042200 16008KT P6SM SCT080 BKN200
BECMG 0500/0502 10008KT RMK NXT FCST BY 041200Z